Погода Пуэрто-Паломасна неделю

Чиуауа, Мексика

23 - 29 июля
  • 23июля
    Сегодня
    +18°
    +33°
    Ясно и безоблачно
    ВремяПогодаТемператураВлажностьДавлениеВетер, м/сВероятность осадков
    00:00Ясно и безоблачно+23°C66 %662 мм3.7 м/с2 %
    03:00Ясно и безоблачно+20°C75 %662 мм2.9 м/с2 %
    06:00Ясно и безоблачно+19°C85 %663 мм1.7 м/с2 %
    09:00Ясно и безоблачно+22°C67 %664 мм2.5 м/с2 %
    12:00Ясно и безоблачно+27°C46 %665 мм3.7 м/с2 %
    15:00Ясно и безоблачно+31°C35 %665 мм4.3 м/с2 %
    18:00Ясно и безоблачно+32°C32 %664 мм4.2 м/с2 %
    21:00Ясно и безоблачно+27°C45 %664 мм3.0 м/с2 %
  • 24июля
    Среда
    +21°
    +35°
    Небольшая облачность
    ВремяПогодаТемператураВлажностьДавлениеВетер, м/сВероятность осадков
    00:00Ясно и безоблачно+23°C61 %664 мм2.0 м/с2 %
    03:00Ясно и безоблачно+21°C64 %663 мм2.5 м/с2 %
    06:00Ясно и безоблачно+19°C68 %663 мм1.9 м/с2 %
    09:00Ясно и безоблачно+24°C45 %666 мм2.4 м/с2 %
    12:00Ясно и безоблачно+31°C29 %667 мм3.2 м/с2 %
    15:00Небольшая облачность+35°C23 %666 мм3.7 м/с2 %
    18:00Небольшая облачность+34°C22 %665 мм3.5 м/с2 %
    21:00Ясно и безоблачно+31°C27 %665 мм2.3 м/с2 %
  • 25июля
    Четверг
    +21°
    +37°
    Ясно и безоблачно
    ВремяПогодаТемператураВлажностьДавлениеВетер, м/сВероятность осадков
    00:00Ясно и безоблачно+26°C39 %664 мм1.4 м/с2 %
    03:00Ясно и безоблачно+23°C47 %663 мм2.0 м/с2 %
    06:00Ясно и безоблачно+21°C51 %663 мм2.6 м/с2 %
    09:00Ясно и безоблачно+25°C33 %665 мм2.8 м/с2 %
    12:00Ясно и безоблачно+32°C20 %666 мм3.2 м/с2 %
    15:00Ясно и безоблачно+35°C16 %665 мм4.0 м/с2 %
    18:00Небольшая облачность+36°C14 %664 мм2.4 м/с2 %
    21:00Ясно и безоблачно+32°C16 %663 мм2.6 м/с2 %
  • 26июля
    Пятница
    +24°
    +37°
    Ясно и безоблачно
    ВремяПогодаТемператураВлажностьДавлениеВетер, м/сВероятность осадков
    00:00Ясно и безоблачно+26°C18 %662 мм2.5 м/с2 %
    03:00Ясно и безоблачно+26°C21 %661 мм0.6 м/с2 %
    06:00Практически безоблачно+21°C33 %660 мм3.2 м/с2 %
    09:00Ясно и безоблачно+26°C27 %663 мм1.2 м/с2 %
    12:00Ясно и безоблачно+32°C18 %663 мм1.8 м/с2 %
    15:00Ясно и безоблачно+36°C14 %661 мм3.0 м/с2 %
    18:00Облачно с прояснениями+33°C23 %660 мм7.7 м/с5 %
    21:00Облачно с прояснениями+31°C20 %660 мм4.4 м/с5 %
  • 27июля
    Суббота
    +22°
    +37°
    Практически безоблачно
    ВремяПогодаТемператураВлажностьДавлениеВетер, м/сВероятность осадков
    00:00Небольшая облачность+28°C30 %660 мм5.5 м/с8 %
    03:00Облачно с прояснениями+26°C34 %659 мм4.3 м/с8 %
    06:00Ясно и безоблачно+25°C43 %659 мм3.5 м/с3 %
    09:00Ясно и безоблачно+28°C35 %660 мм4.6 м/с4 %
    12:00Ясно и безоблачно+33°C24 %661 мм3.0 м/с2 %
    15:00Практически безоблачно+36°C20 %659 мм1.1 м/с6 %
    18:00Небольшая облачность, возможен дождь с грозой+31°C30 %659 мм7.1 м/с24 %
    21:00Небольшая облачность+28°C36 %659 мм6.1 м/с14 %
Мы используем cookies
Соглашаюсь